Terminal Aerodrome Forecast
Issued by NWS

Home | Current Version | Previous Version | Text Only | Print | Product List | Glossary On
Versions: 1 2 3 4 5 6 7 8 9 10 11 12 13 14 15 16 17 18 19 20
000
FTUS44 KMAF 281100
TAFHOB
TAF
KHOB 281120Z 2812/2912 12012KT 6SM BR OVC014
     FM281800 15012KT P6SM OVC035
     FM282100 16013G23KT P6SM SCT040 BKN250
     FM290200 14014KT P6SM BKN200
     FM290700 15007KT P6SM BKN035
     FM291000 16006KT 5SM BR OVC030=

USA.gov is the U.S. government's official web portal to all federal, state and local government web resources and services.